sensor_id;sensor_type;location;lat;lon;timestamp;P1;durP1;ratioP1;P2;durP2;ratioP2
28028;SDS011;15345;59.364;18.016;2023-04-01T00:00:07;2.17;;;1.90;;
28028;SDS011;15345;59.364;18.016;2023-04-01T00:01:27;2.13;;;1.85;;
28028;SDS011;15345;59.364;18.016;2023-04-01T00:02:45;3.78;;;1.88;;
28028;SDS011;15345;59.364;18.016;2023-04-01T00:04:05;3.22;;;1.70;;
28028;SDS011;15345;59.364;18.016;2023-04-01T00:05:23;1.98;;;1.70;;
28028;SDS011;15345;59.364;18.016;2023-04-01T00:06:46;1.52;;;1.30;;
28028;SDS011;15345;59.364;18.016;2023-04-01T00:08:06;3.08;;;1.98;;
28028;SDS011;15345;59.364;18.016;2023-04-01T00:09:25;2.60;;;1.88;;
28028;SDS011;15345;59.364;18.016;2023-04-01T00:10:44;2.63;;;1.92;;
28028;SDS011;15345;59.364;18.016;2023-04-01T00:12:03;2.85;;;2.05;;
28028;SDS011;15345;59.364;18.016;2023-04-01T00:13:24;5.43;;;1.70;;
28028;SDS011;15345;59.364;18.016;2023-04-01T00:14:44;2.38;;;2.10;;
28028;SDS011;15345;59.364;18.016;2023-04-01T00:16:03;3.78;;;2.20;;
28028;SDS011;15345;59.364;18.016;2023-04-01T00:17:22;2.75;;;1.90;;
28028;SDS011;15345;59.364;18.016;2023-04-01T00:18:41;3.00;;;1.85;;
28028;SDS011;15345;59.364;18.016;2023-04-01T00:20:00;3.28;;;2.25;;
28028;SDS011;15345;59.364;18.016;2023-04-01T00:21:21;2.03;;;1.80;;
28028;SDS011;15345;59.364;18.016;2023-04-01T00:22:40;3.50;;;1.90;;
28028;SDS011;15345;59.364;18.016;2023-04-01T00:23:59;2.53;;;2.33;;
28028;SDS011;15345;59.364;18.016;2023-04-01T00:25:20;2.20;;;2.00;;
28028;SDS011;15345;59.364;18.016;2023-04-01T00:26:39;3.28;;;2.10;;
28028;SDS011;15345;59.364;18.016;2023-04-01T00:28:00;4.05;;;2.13;;
28028;SDS011;15345;59.364;18.016;2023-04-01T00:29:19;4.65;;;1.92;;
28028;SDS011;15345;59.364;18.016;2023-04-01T00:30:38;3.45;;;2.20;;
28028;SDS011;15345;59.364;18.016;2023-04-01T00:31:57;2.35;;;1.92;;
28028;SDS011;15345;59.364;18.016;2023-04-01T00:33:16;5.78;;;1.90;;
28028;SDS011;15345;59.364;18.016;2023-04-01T00:34:35;2.30;;;2.10;;
28028;SDS011;15345;59.364;18.016;2023-04-01T00:35:55;2.78;;;1.80;;
28028;SDS011;15345;59.364;18.016;2023-04-01T00:37:15;6.53;;;1.90;;
28028;SDS011;15345;59.364;18.016;2023-04-01T00:38:34;3.80;;;2.08;;
28028;SDS011;15345;59.364;18.016;2023-04-01T00:39:53;3.15;;;1.95;;
28028;SDS011;15345;59.364;18.016;2023-04-01T00:41:13;2.38;;;1.83;;
28028;SDS011;15345;59.364;18.016;2023-04-01T00:42:33;2.05;;;1.58;;
28028;SDS011;15345;59.364;18.016;2023-04-01T00:43:52;3.53;;;1.85;;
28028;SDS011;15345;59.364;18.016;2023-04-01T00:46:46;2.35;;;1.92;;
28028;SDS011;15345;59.364;18.016;2023-04-01T00:48:27;3.50;;;2.42;;
28028;SDS011;15345;59.364;18.016;2023-04-01T00:49:45;2.85;;;1.90;;
28028;SDS011;15345;59.364;18.016;2023-04-01T00:51:13;3.15;;;1.73;;
28028;SDS011;15345;59.364;18.016;2023-04-01T00:52:32;5.68;;;1.88;;
28028;SDS011;15345;59.364;18.016;2023-04-01T00:53:53;3.63;;;1.80;;
28028;SDS011;15345;59.364;18.016;2023-04-01T00:55:13;4.55;;;1.98;;
28028;SDS011;15345;59.364;18.016;2023-04-01T00:56:34;2.60;;;2.00;;
28028;SDS011;15345;59.364;18.016;2023-04-01T00:57:54;1.85;;;1.75;;
28028;SDS011;15345;59.364;18.016;2023-04-01T00:59:25;2.25;;;1.70;;
28028;SDS011;15345;59.364;18.016;2023-04-01T01:00:45;2.47;;;1.67;;
28028;SDS011;15345;59.364;18.016;2023-04-01T01:02:05;1.75;;;1.65;;
28028;SDS011;15345;59.364;18.016;2023-04-01T01:03:25;3.20;;;1.83;;
28028;SDS011;15345;59.364;18.016;2023-04-01T01:04:44;2.72;;;1.83;;
28028;SDS011;15345;59.364;18.016;2023-04-01T01:06:08;3.60;;;1.90;;
28028;SDS011;15345;59.364;18.016;2023-04-01T01:09:06;3.03;;;1.92;;
28028;SDS011;15345;59.364;18.016;2023-04-01T01:13:17;2.25;;;2.00;;
28028;SDS011;15345;59.364;18.016;2023-04-01T01:16:02;4.85;;;2.20;;
28028;SDS011;15345;59.364;18.016;2023-04-01T01:26:19;2.20;;;2.00;;
28028;SDS011;15345;59.364;18.016;2023-04-01T01:27:48;2.97;;;1.70;;
28028;SDS011;15345;59.364;18.016;2023-04-01T01:30:52;2.42;;;2.25;;
28028;SDS011;15345;59.364;18.016;2023-04-01T01:33:32;3.03;;;2.03;;
28028;SDS011;15345;59.364;18.016;2023-04-01T01:36:32;2.25;;;2.00;;
28028;SDS011;15345;59.364;18.016;2023-04-01T01:38:30;2.33;;;2.10;;
28028;SDS011;15345;59.364;18.016;2023-04-01T01:39:41;2.17;;;1.98;;
28028;SDS011;15345;59.364;18.016;2023-04-01T01:41:01;2.75;;;2.20;;
28028;SDS011;15345;59.364;18.016;2023-04-01T01:42:22;2.47;;;1.92;;
28028;SDS011;15345;59.364;18.016;2023-04-01T01:43:42;2.35;;;1.67;;
28028;SDS011;15345;59.364;18.016;2023-04-01T01:45:02;2.10;;;1.77;;
28028;SDS011;15345;59.364;18.016;2023-04-01T01:46:23;3.20;;;2.35;;
28028;SDS011;15345;59.364;18.016;2023-04-01T01:47:43;2.22;;;1.80;;
28028;SDS011;15345;59.364;18.016;2023-04-01T01:49:02;5.47;;;1.95;;
28028;SDS011;15345;59.364;18.016;2023-04-01T01:50:22;2.35;;;2.15;;
28028;SDS011;15345;59.364;18.016;2023-04-01T01:51:43;2.38;;;1.98;;
28028;SDS011;15345;59.364;18.016;2023-04-01T01:53:04;1.90;;;1.80;;
28028;SDS011;15345;59.364;18.016;2023-04-01T01:54:25;1.67;;;1.58;;
28028;SDS011;15345;59.364;18.016;2023-04-01T01:55:45;2.33;;;2.10;;
28028;SDS011;15345;59.364;18.016;2023-04-01T01:57:07;3.10;;;1.90;;
28028;SDS011;15345;59.364;18.016;2023-04-01T01:58:47;4.40;;;2.03;;
28028;SDS011;15345;59.364;18.016;2023-04-01T02:00:06;4.03;;;1.90;;
28028;SDS011;15345;59.364;18.016;2023-04-01T02:01:31;3.03;;;2.25;;
28028;SDS011;15345;59.364;18.016;2023-04-01T02:02:52;2.58;;;2.05;;
28028;SDS011;15345;59.364;18.016;2023-04-01T02:04:12;3.30;;;1.83;;
28028;SDS011;15345;59.364;18.016;2023-04-01T02:05:32;2.22;;;1.92;;
28028;SDS011;15345;59.364;18.016;2023-04-01T02:07:02;2.30;;;2.10;;
28028;SDS011;15345;59.364;18.016;2023-04-01T02:12:18;2.47;;;1.88;;
28028;SDS011;15345;59.364;18.016;2023-04-01T02:13:21;3.90;;;2.10;;
28028;SDS011;15345;59.364;18.016;2023-04-01T02:15:00;3.20;;;2.20;;
28028;SDS011;15345;59.364;18.016;2023-04-01T02:16:27;2.85;;;1.92;;
28028;SDS011;15345;59.364;18.016;2023-04-01T02:17:48;2.38;;;2.17;;
28028;SDS011;15345;59.364;18.016;2023-04-01T02:19:08;2.38;;;2.05;;
28028;SDS011;15345;59.364;18.016;2023-04-01T02:20:29;3.67;;;2.13;;
28028;SDS011;15345;59.364;18.016;2023-04-01T02:21:50;4.35;;;1.98;;
28028;SDS011;15345;59.364;18.016;2023-04-01T02:23:10;2.70;;;2.20;;
28028;SDS011;15345;59.364;18.016;2023-04-01T02:24:30;4.18;;;2.00;;
28028;SDS011;15345;59.364;18.016;2023-04-01T02:25:50;4.03;;;2.03;;
28028;SDS011;15345;59.364;18.016;2023-04-01T02:27:09;3.15;;;2.15;;
28028;SDS011;15345;59.364;18.016;2023-04-01T02:28:29;2.28;;;2.08;;
28028;SDS011;15345;59.364;18.016;2023-04-01T02:29:50;3.05;;;2.17;;
28028;SDS011;15345;59.364;18.016;2023-04-01T02:31:10;4.07;;;2.00;;
28028;SDS011;15345;59.364;18.016;2023-04-01T02:32:29;2.88;;;2.22;;
28028;SDS011;15345;59.364;18.016;2023-04-01T02:33:50;2.08;;;1.80;;
28028;SDS011;15345;59.364;18.016;2023-04-01T02:35:10;3.67;;;2.28;;
28028;SDS011;15345;59.364;18.016;2023-04-01T02:36:29;4.13;;;2.08;;
28028;SDS011;15345;59.364;18.016;2023-04-01T02:37:49;3.17;;;1.67;;
28028;SDS011;15345;59.364;18.016;2023-04-01T02:39:09;3.97;;;2.15;;
28028;SDS011;15345;59.364;18.016;2023-04-01T02:40:28;3.50;;;1.70;;
28028;SDS011;15345;59.364;18.016;2023-04-01T02:41:48;2.10;;;1.90;;
28028;SDS011;15345;59.364;18.016;2023-04-01T02:43:07;2.08;;;1.77;;
28028;SDS011;15345;59.364;18.016;2023-04-01T02:44:26;2.30;;;2.10;;
28028;SDS011;15345;59.364;18.016;2023-04-01T02:45:45;1.90;;;1.80;;
28028;SDS011;15345;59.364;18.016;2023-04-01T02:47:03;3.17;;;2.15;;
28028;SDS011;15345;59.364;18.016;2023-04-01T02:48:22;2.95;;;2.10;;
28028;SDS011;15345;59.364;18.016;2023-04-01T02:49:41;2.25;;;1.90;;
28028;SDS011;15345;59.364;18.016;2023-04-01T02:51:00;2.83;;;1.85;;
28028;SDS011;15345;59.364;18.016;2023-04-01T02:52:20;4.13;;;2.10;;
28028;SDS011;15345;59.364;18.016;2023-04-01T02:53:38;2.78;;;2.03;;
28028;SDS011;15345;59.364;18.016;2023-04-01T02:54:57;5.65;;;2.28;;
28028;SDS011;15345;59.364;18.016;2023-04-01T02:56:16;2.85;;;1.98;;
28028;SDS011;15345;59.364;18.016;2023-04-01T02:57:37;3.13;;;1.80;;
28028;SDS011;15345;59.364;18.016;2023-04-01T02:58:57;2.38;;;1.80;;
28028;SDS011;15345;59.364;18.016;2023-04-01T03:00:19;4.55;;;2.20;;
28028;SDS011;15345;59.364;18.016;2023-04-01T03:01:38;4.03;;;2.05;;
28028;SDS011;15345;59.364;18.016;2023-04-01T03:02:56;2.35;;;2.10;;
28028;SDS011;15345;59.364;18.016;2023-04-01T03:04:15;1.92;;;1.73;;
28028;SDS011;15345;59.364;18.016;2023-04-01T03:05:36;3.47;;;1.90;;
28028;SDS011;15345;59.364;18.016;2023-04-01T03:06:55;3.58;;;1.95;;
28028;SDS011;15345;59.364;18.016;2023-04-01T03:08:13;2.67;;;1.92;;
28028;SDS011;15345;59.364;18.016;2023-04-01T03:09:33;1.95;;;1.80;;
28028;SDS011;15345;59.364;18.016;2023-04-01T03:10:52;3.25;;;2.10;;
28028;SDS011;15345;59.364;18.016;2023-04-01T03:12:11;2.33;;;1.92;;
28028;SDS011;15345;59.364;18.016;2023-04-01T03:13:30;1.75;;;1.65;;
28028;SDS011;15345;59.364;18.016;2023-04-01T03:14:49;3.65;;;2.28;;
28028;SDS011;15345;59.364;18.016;2023-04-01T03:16:08;3.00;;;1.73;;
28028;SDS011;15345;59.364;18.016;2023-04-01T03:17:27;3.72;;;2.00;;
28028;SDS011;15345;59.364;18.016;2023-04-01T03:18:46;2.65;;;1.70;;
28028;SDS011;15345;59.364;18.016;2023-04-01T03:20:05;3.83;;;1.88;;
28028;SDS011;15345;59.364;18.016;2023-04-01T03:21:24;3.70;;;1.90;;
28028;SDS011;15345;59.364;18.016;2023-04-01T03:22:46;2.78;;;2.00;;
28028;SDS011;15345;59.364;18.016;2023-04-01T03:24:06;2.05;;;1.73;;
28028;SDS011;15345;59.364;18.016;2023-04-01T03:25:26;2.75;;;2.13;;
28028;SDS011;15345;59.364;18.016;2023-04-01T03:26:47;5.22;;;2.00;;
28028;SDS011;15345;59.364;18.016;2023-04-01T03:28:06;2.30;;;2.10;;
28028;SDS011;15345;59.364;18.016;2023-04-01T03:29:24;2.25;;;1.90;;
28028;SDS011;15345;59.364;18.016;2023-04-01T03:30:44;2.20;;;2.00;;
28028;SDS011;15345;59.364;18.016;2023-04-01T03:32:02;3.53;;;2.15;;
28028;SDS011;15345;59.364;18.016;2023-04-01T03:33:22;3.03;;;2.30;;
28028;SDS011;15345;59.364;18.016;2023-04-01T03:34:41;2.75;;;2.20;;
28028;SDS011;15345;59.364;18.016;2023-04-01T03:35:59;3.67;;;2.20;;
28028;SDS011;15345;59.364;18.016;2023-04-01T03:37:18;5.38;;;2.30;;
28028;SDS011;15345;59.364;18.016;2023-04-01T03:38:38;4.72;;;2.10;;
28028;SDS011;15345;59.364;18.016;2023-04-01T03:39:58;2.28;;;2.08;;
28028;SDS011;15345;59.364;18.016;2023-04-01T03:41:17;2.13;;;1.92;;
28028;SDS011;15345;59.364;18.016;2023-04-01T03:42:37;2.50;;;2.08;;
28028;SDS011;15345;59.364;18.016;2023-04-01T03:43:55;1.92;;;1.83;;
28028;SDS011;15345;59.364;18.016;2023-04-01T03:45:15;2.33;;;1.80;;
28028;SDS011;15345;59.364;18.016;2023-04-01T03:46:34;2.15;;;1.80;;
28028;SDS011;15345;59.364;18.016;2023-04-01T03:47:54;2.40;;;1.85;;
28028;SDS011;15345;59.364;18.016;2023-04-01T03:49:13;3.40;;;2.10;;
28028;SDS011;15345;59.364;18.016;2023-04-01T03:50:31;1.88;;;1.77;;
28028;SDS011;15345;59.364;18.016;2023-04-01T03:51:53;4.40;;;1.95;;
28028;SDS011;15345;59.364;18.016;2023-04-01T03:53:12;2.28;;;1.58;;
28028;SDS011;15345;59.364;18.016;2023-04-01T03:54:31;2.03;;;1.75;;
28028;SDS011;15345;59.364;18.016;2023-04-01T03:55:50;2.63;;;2.00;;
28028;SDS011;15345;59.364;18.016;2023-04-01T03:57:13;3.60;;;2.25;;
28028;SDS011;15345;59.364;18.016;2023-04-01T03:58:32;3.10;;;2.30;;
28028;SDS011;15345;59.364;18.016;2023-04-01T03:59:51;2.05;;;1.77;;
28028;SDS011;15345;59.364;18.016;2023-04-01T04:01:14;2.88;;;1.92;;
28028;SDS011;15345;59.364;18.016;2023-04-01T04:03:52;2.10;;;1.90;;
28028;SDS011;15345;59.364;18.016;2023-04-01T04:05:10;3.65;;;2.00;;
28028;SDS011;15345;59.364;18.016;2023-04-01T04:06:30;4.00;;;1.90;;
28028;SDS011;15345;59.364;18.016;2023-04-01T04:07:50;2.83;;;2.20;;
28028;SDS011;15345;59.364;18.016;2023-04-01T04:09:09;3.85;;;2.05;;
28028;SDS011;15345;59.364;18.016;2023-04-01T04:10:29;2.50;;;2.30;;
28028;SDS011;15345;59.364;18.016;2023-04-01T04:11:49;2.25;;;2.03;;
28028;SDS011;15345;59.364;18.016;2023-04-01T04:13:08;3.05;;;2.13;;
28028;SDS011;15345;59.364;18.016;2023-04-01T04:14:27;2.05;;;1.88;;
28028;SDS011;15345;59.364;18.016;2023-04-01T04:15:46;4.03;;;1.90;;
28028;SDS011;15345;59.364;18.016;2023-04-01T04:17:05;2.35;;;2.10;;
28028;SDS011;15345;59.364;18.016;2023-04-01T04:18:24;4.63;;;2.20;;
28028;SDS011;15345;59.364;18.016;2023-04-01T04:19:43;2.88;;;2.28;;
28028;SDS011;15345;59.364;18.016;2023-04-01T04:21:02;2.53;;;2.22;;
28028;SDS011;15345;59.364;18.016;2023-04-01T04:22:21;3.00;;;1.90;;
28028;SDS011;15345;59.364;18.016;2023-04-01T04:23:41;5.22;;;1.92;;
28028;SDS011;15345;59.364;18.016;2023-04-01T04:24:59;3.17;;;2.28;;
28028;SDS011;15345;59.364;18.016;2023-04-01T04:26:18;2.60;;;2.00;;
28028;SDS011;15345;59.364;18.016;2023-04-01T04:27:37;3.58;;;2.10;;
28028;SDS011;15345;59.364;18.016;2023-04-01T04:28:56;2.63;;;2.20;;
28028;SDS011;15345;59.364;18.016;2023-04-01T04:30:15;3.35;;;1.77;;
28028;SDS011;15345;59.364;18.016;2023-04-01T04:31:34;3.60;;;2.03;;
28028;SDS011;15345;59.364;18.016;2023-04-01T04:32:53;3.08;;;1.88;;
28028;SDS011;15345;59.364;18.016;2023-04-01T04:34:12;3.30;;;2.53;;
28028;SDS011;15345;59.364;18.016;2023-04-01T04:35:31;3.30;;;2.20;;
28028;SDS011;15345;59.364;18.016;2023-04-01T04:36:51;2.35;;;2.15;;
28028;SDS011;15345;59.364;18.016;2023-04-01T04:38:11;3.75;;;2.40;;
28028;SDS011;15345;59.364;18.016;2023-04-01T04:39:29;2.53;;;2.03;;
28028;SDS011;15345;59.364;18.016;2023-04-01T04:40:48;3.10;;;2.22;;
28028;SDS011;15345;59.364;18.016;2023-04-01T04:42:07;3.10;;;2.30;;
28028;SDS011;15345;59.364;18.016;2023-04-01T04:43:26;3.17;;;2.88;;
28028;SDS011;15345;59.364;18.016;2023-04-01T04:44:45;4.10;;;1.95;;
28028;SDS011;15345;59.364;18.016;2023-04-01T04:46:08;2.90;;;2.25;;
28028;SDS011;15345;59.364;18.016;2023-04-01T04:47:27;3.22;;;2.30;;
28028;SDS011;15345;59.364;18.016;2023-04-01T04:48:46;3.40;;;1.83;;
28028;SDS011;15345;59.364;18.016;2023-04-01T04:50:06;3.38;;;1.92;;
28028;SDS011;15345;59.364;18.016;2023-04-01T04:51:25;4.05;;;2.13;;
28028;SDS011;15345;59.364;18.016;2023-04-01T04:52:44;2.92;;;1.98;;
28028;SDS011;15345;59.364;18.016;2023-04-01T04:54:03;3.58;;;1.95;;
28028;SDS011;15345;59.364;18.016;2023-04-01T04:55:23;6.85;;;2.50;;
28028;SDS011;15345;59.364;18.016;2023-04-01T04:56:42;1.90;;;1.77;;
28028;SDS011;15345;59.364;18.016;2023-04-01T04:58:01;5.55;;;2.50;;
28028;SDS011;15345;59.364;18.016;2023-04-01T04:59:20;4.43;;;2.40;;
28028;SDS011;15345;59.364;18.016;2023-04-01T05:00:39;2.42;;;2.22;;
28028;SDS011;15345;59.364;18.016;2023-04-01T05:01:58;3.33;;;2.38;;
28028;SDS011;15345;59.364;18.016;2023-04-01T05:03:16;4.18;;;2.38;;
28028;SDS011;15345;59.364;18.016;2023-04-01T05:04:36;4.57;;;2.22;;
28028;SDS011;15345;59.364;18.016;2023-04-01T05:05:55;4.38;;;2.60;;
28028;SDS011;15345;59.364;18.016;2023-04-01T05:07:13;2.40;;;2.20;;
28028;SDS011;15345;59.364;18.016;2023-04-01T05:08:33;4.25;;;1.95;;
28028;SDS011;15345;59.364;18.016;2023-04-01T05:09:52;4.47;;;2.00;;
28028;SDS011;15345;59.364;18.016;2023-04-01T05:11:12;4.20;;;2.20;;
28028;SDS011;15345;59.364;18.016;2023-04-01T05:12:31;3.40;;;2.08;;
28028;SDS011;15345;59.364;18.016;2023-04-01T05:15:13;3.05;;;1.92;;
28028;SDS011;15345;59.364;18.016;2023-04-01T05:16:33;2.90;;;2.28;;
28028;SDS011;15345;59.364;18.016;2023-04-01T05:17:52;2.53;;;2.33;;
28028;SDS011;15345;59.364;18.016;2023-04-01T05:19:11;2.85;;;2.10;;
28028;SDS011;15345;59.364;18.016;2023-04-01T05:20:30;4.53;;;2.10;;
28028;SDS011;15345;59.364;18.016;2023-04-01T05:21:49;2.15;;;1.90;;
28028;SDS011;15345;59.364;18.016;2023-04-01T05:23:08;3.58;;;2.05;;
28028;SDS011;15345;59.364;18.016;2023-04-01T05:24:27;5.30;;;2.05;;
28028;SDS011;15345;59.364;18.016;2023-04-01T05:25:47;5.65;;;2.17;;
28028;SDS011;15345;59.364;18.016;2023-04-01T05:27:05;3.55;;;2.30;;
28028;SDS011;15345;59.364;18.016;2023-04-01T05:28:25;3.53;;;2.08;;
28028;SDS011;15345;59.364;18.016;2023-04-01T05:29:44;2.75;;;2.10;;
28028;SDS011;15345;59.364;18.016;2023-04-01T05:31:03;2.22;;;2.03;;
28028;SDS011;15345;59.364;18.016;2023-04-01T05:32:23;5.20;;;2.42;;
28028;SDS011;15345;59.364;18.016;2023-04-01T05:33:41;2.58;;;1.90;;
28028;SDS011;15345;59.364;18.016;2023-04-01T05:35:01;6.82;;;2.30;;
28028;SDS011;15345;59.364;18.016;2023-04-01T05:36:19;3.60;;;2.33;;
28028;SDS011;15345;59.364;18.016;2023-04-01T05:37:39;2.60;;;2.10;;
28028;SDS011;15345;59.364;18.016;2023-04-01T05:38:58;3.30;;;1.95;;
28028;SDS011;15345;59.364;18.016;2023-04-01T05:40:17;5.38;;;2.20;;
28028;SDS011;15345;59.364;18.016;2023-04-01T05:41:37;3.75;;;2.22;;
28028;SDS011;15345;59.364;18.016;2023-04-01T05:42:57;3.35;;;2.13;;
28028;SDS011;15345;59.364;18.016;2023-04-01T05:44:16;2.17;;;1.95;;
28028;SDS011;15345;59.364;18.016;2023-04-01T05:45:35;1.95;;;1.83;;
28028;SDS011;15345;59.364;18.016;2023-04-01T05:46:54;3.35;;;2.35;;
28028;SDS011;15345;59.364;18.016;2023-04-01T05:48:13;2.35;;;1.90;;
28028;SDS011;15345;59.364;18.016;2023-04-01T05:49:32;3.65;;;2.00;;
28028;SDS011;15345;59.364;18.016;2023-04-01T05:50:51;2.25;;;2.05;;
28028;SDS011;15345;59.364;18.016;2023-04-01T05:52:11;3.60;;;1.77;;
28028;SDS011;15345;59.364;18.016;2023-04-01T05:53:30;3.58;;;1.73;;
28028;SDS011;15345;59.364;18.016;2023-04-01T05:54:49;2.22;;;1.80;;
28028;SDS011;15345;59.364;18.016;2023-04-01T05:56:09;2.50;;;2.05;;
28028;SDS011;15345;59.364;18.016;2023-04-01T05:57:28;3.17;;;1.63;;
28028;SDS011;15345;59.364;18.016;2023-04-01T05:58:48;3.88;;;1.90;;
28028;SDS011;15345;59.364;18.016;2023-04-01T06:00:09;5.20;;;2.08;;
28028;SDS011;15345;59.364;18.016;2023-04-01T06:01:28;2.17;;;1.50;;
28028;SDS011;15345;59.364;18.016;2023-04-01T06:02:47;5.95;;;1.88;;
28028;SDS011;15345;59.364;18.016;2023-04-01T06:04:09;3.60;;;2.22;;
28028;SDS011;15345;59.364;18.016;2023-04-01T06:05:29;6.57;;;3.28;;
28028;SDS011;15345;59.364;18.016;2023-04-01T06:06:48;4.07;;;2.47;;
28028;SDS011;15345;59.364;18.016;2023-04-01T06:08:15;3.75;;;2.50;;
28028;SDS011;15345;59.364;18.016;2023-04-01T06:09:34;3.75;;;2.50;;
28028;SDS011;15345;59.364;18.016;2023-04-01T06:12:29;4.90;;;2.40;;
28028;SDS011;15345;59.364;18.016;2023-04-01T06:14:10;2.42;;;1.83;;
28028;SDS011;15345;59.364;18.016;2023-04-01T06:19:57;4.00;;;1.90;;
28028;SDS011;15345;59.364;18.016;2023-04-01T06:39:32;2.45;;;1.48;;
28028;SDS011;15345;59.364;18.016;2023-04-01T06:41:09;5.07;;;1.20;;
28028;SDS011;15345;59.364;18.016;2023-04-01T06:45:41;1.55;;;1.17;;
28028;SDS011;15345;59.364;18.016;2023-04-01T06:48:43;3.30;;;1.30;;
28028;SDS011;15345;59.364;18.016;2023-04-01T06:50:51;2.67;;;1.17;;
28028;SDS011;15345;59.364;18.016;2023-04-01T06:54:38;2.13;;;1.20;;
28028;SDS011;15345;59.364;18.016;2023-04-01T06:55:59;2.67;;;1.40;;
28028;SDS011;15345;59.364;18.016;2023-04-01T06:57:28;2.05;;;1.52;;
28028;SDS011;15345;59.364;18.016;2023-04-01T06:58:52;2.63;;;0.90;;
28028;SDS011;15345;59.364;18.016;2023-04-01T07:00:46;4.05;;;1.20;;
28028;SDS011;15345;59.364;18.016;2023-04-01T07:02:41;2.65;;;1.05;;
28028;SDS011;15345;59.364;18.016;2023-04-01T07:03:55;3.33;;;0.90;;
28028;SDS011;15345;59.364;18.016;2023-04-01T07:05:16;2.88;;;1.17;;
28028;SDS011;15345;59.364;18.016;2023-04-01T07:06:36;2.03;;;1.10;;
28028;SDS011;15345;59.364;18.016;2023-04-01T07:07:57;0.93;;;0.93;;
28028;SDS011;15345;59.364;18.016;2023-04-01T07:09:31;5.25;;;1.13;;
28028;SDS011;15345;59.364;18.016;2023-04-01T07:10:58;2.10;;;1.20;;
28028;SDS011;15345;59.364;18.016;2023-04-01T07:15:30;7.07;;;1.25;;
28028;SDS011;15345;59.364;18.016;2023-04-01T07:18:47;6.30;;;1.15;;
28028;SDS011;15345;59.364;18.016;2023-04-01T07:20:11;3.78;;;1.33;;
28028;SDS011;15345;59.364;18.016;2023-04-01T07:21:35;8.65;;;1.40;;
28028;SDS011;15345;59.364;18.016;2023-04-01T07:24:16;4.50;;;1.48;;
28028;SDS011;15345;59.364;18.016;2023-04-01T07:25:38;6.28;;;1.05;;
28028;SDS011;15345;59.364;18.016;2023-04-01T07:26:58;4.15;;;1.15;;
28028;SDS011;15345;59.364;18.016;2023-04-01T07:28:17;3.70;;;1.40;;
28028;SDS011;15345;59.364;18.016;2023-04-01T07:29:36;8.82;;;1.40;;
28028;SDS011;15345;59.364;18.016;2023-04-01T07:36:32;5.80;;;1.17;;
28028;SDS011;15345;59.364;18.016;2023-04-01T07:39:36;5.25;;;1.05;;
28028;SDS011;15345;59.364;18.016;2023-04-01T07:45:14;7.05;;;0.98;;
28028;SDS011;15345;59.364;18.016;2023-04-01T07:48:08;2.60;;;1.55;;
28028;SDS011;15345;59.364;18.016;2023-04-01T07:51:00;6.85;;;1.10;;
28028;SDS011;15345;59.364;18.016;2023-04-01T07:56:38;3.83;;;1.60;;
28028;SDS011;15345;59.364;18.016;2023-04-01T07:58:05;4.13;;;1.02;;
28028;SDS011;15345;59.364;18.016;2023-04-01T07:59:51;6.80;;;1.33;;
28028;SDS011;15345;59.364;18.016;2023-04-01T08:05:14;3.22;;;1.10;;
28028;SDS011;15345;59.364;18.016;2023-04-01T08:06:41;4.03;;;1.08;;
28028;SDS011;15345;59.364;18.016;2023-04-01T08:08:05;5.75;;;1.48;;
28028;SDS011;15345;59.364;18.016;2023-04-01T08:11:04;8.35;;;1.33;;
28028;SDS011;15345;59.364;18.016;2023-04-01T08:12:40;4.18;;;1.33;;
28028;SDS011;15345;59.364;18.016;2023-04-01T08:15:32;5.60;;;1.30;;
28028;SDS011;15345;59.364;18.016;2023-04-01T08:19:52;5.65;;;0.88;;
28028;SDS011;15345;59.364;18.016;2023-04-01T08:21:25;5.45;;;1.30;;
28028;SDS011;15345;59.364;18.016;2023-04-01T08:22:50;2.95;;;1.20;;
28028;SDS011;15345;59.364;18.016;2023-04-01T08:24:25;3.78;;;0.95;;
28028;SDS011;15345;59.364;18.016;2023-04-01T08:25:54;1.83;;;0.80;;
28028;SDS011;15345;59.364;18.016;2023-04-01T08:27:21;3.70;;;1.33;;
28028;SDS011;15345;59.364;18.016;2023-04-01T08:29:01;2.85;;;1.48;;
28028;SDS011;15345;59.364;18.016;2023-04-01T08:32:08;2.55;;;0.82;;
28028;SDS011;15345;59.364;18.016;2023-04-01T08:33:30;5.15;;;1.38;;
28028;SDS011;15345;59.364;18.016;2023-04-01T08:35:02;8.93;;;1.23;;
28028;SDS011;15345;59.364;18.016;2023-04-01T08:36:29;2.85;;;0.90;;
28028;SDS011;15345;59.364;18.016;2023-04-01T08:37:49;1.08;;;0.82;;
28028;SDS011;15345;59.364;18.016;2023-04-01T08:40:48;1.83;;;1.45;;
28028;SDS011;15345;59.364;18.016;2023-04-01T08:45:03;2.80;;;0.95;;
28028;SDS011;15345;59.364;18.016;2023-04-01T08:50:46;2.05;;;1.00;;
28028;SDS011;15345;59.364;18.016;2023-04-01T08:53:49;4.03;;;0.98;;
28028;SDS011;15345;59.364;18.016;2023-04-01T08:55:22;3.75;;;0.88;;
28028;SDS011;15345;59.364;18.016;2023-04-01T08:59:57;2.65;;;0.70;;
28028;SDS011;15345;59.364;18.016;2023-04-01T09:01:35;6.00;;;0.80;;
28028;SDS011;15345;59.364;18.016;2023-04-01T09:06:02;0.88;;;0.85;;
28028;SDS011;15345;59.364;18.016;2023-04-01T09:23:21;0.60;;;0.57;;
28028;SDS011;15345;59.364;18.016;2023-04-01T09:26:13;1.17;;;0.73;;
28028;SDS011;15345;59.364;18.016;2023-04-01T09:27:46;1.85;;;0.70;;
28028;SDS011;15345;59.364;18.016;2023-04-01T09:29:52;2.45;;;1.05;;
28028;SDS011;15345;59.364;18.016;2023-04-01T09:32:23;3.80;;;1.05;;
28028;SDS011;15345;59.364;18.016;2023-04-01T09:34:23;2.97;;;0.70;;
28028;SDS011;15345;59.364;18.016;2023-04-01T09:35:47;1.33;;;0.45;;
28028;SDS011;15345;59.364;18.016;2023-04-01T09:37:20;1.50;;;0.63;;
28028;SDS011;15345;59.364;18.016;2023-04-01T09:43:29;2.25;;;0.82;;
28028;SDS011;15345;59.364;18.016;2023-04-01T09:44:52;3.22;;;0.70;;
28028;SDS011;15345;59.364;18.016;2023-04-01T09:46:16;4.47;;;0.60;;
28028;SDS011;15345;59.364;18.016;2023-04-01T09:50:30;5.43;;;0.90;;
28028;SDS011;15345;59.364;18.016;2023-04-01T09:53:17;3.25;;;0.82;;
28028;SDS011;15345;59.364;18.016;2023-04-01T09:56:23;4.37;;;0.50;;
28028;SDS011;15345;59.364;18.016;2023-04-01T09:59:28;3.28;;;0.70;;
28028;SDS011;15345;59.364;18.016;2023-04-01T10:04:15;2.05;;;0.50;;
28028;SDS011;15345;59.364;18.016;2023-04-01T10:31:42;3.78;;;0.50;;
28028;SDS011;15345;59.364;18.016;2023-04-01T10:33:19;1.85;;;0.47;;
28028;SDS011;15345;59.364;18.016;2023-04-01T10:47:05;2.80;;;0.77;;
28028;SDS011;15345;59.364;18.016;2023-04-01T10:58:56;2.95;;;0.32;;
28028;SDS011;15345;59.364;18.016;2023-04-01T11:01:53;1.15;;;0.45;;
28028;SDS011;15345;59.364;18.016;2023-04-01T11:23:28;1.63;;;0.52;;
28028;SDS011;15345;59.364;18.016;2023-04-01T11:30:56;0.50;;;0.30;;
28028;SDS011;15345;59.364;18.016;2023-04-01T11:32:54;0.98;;;0.20;;
28028;SDS011;15345;59.364;18.016;2023-04-01T11:42:49;2.42;;;0.73;;
28028;SDS011;15345;59.364;18.016;2023-04-01T11:44:18;2.92;;;0.30;;
28028;SDS011;15345;59.364;18.016;2023-04-01T11:50:15;0.90;;;0.20;;
28028;SDS011;15345;59.364;18.016;2023-04-01T11:56:09;2.83;;;0.40;;
28028;SDS011;15345;59.364;18.016;2023-04-01T11:58:59;3.08;;;0.38;;
28028;SDS011;15345;59.364;18.016;2023-04-01T12:10:55;1.00;;;0.35;;
28028;SDS011;15345;59.364;18.016;2023-04-01T12:12:38;6.85;;;0.30;;
28028;SDS011;15345;59.364;18.016;2023-04-01T12:17:04;1.33;;;0.60;;
28028;SDS011;15345;59.364;18.016;2023-04-01T12:20:21;0.35;;;0.25;;
28028;SDS011;15345;59.364;18.016;2023-04-01T12:21:36;3.70;;;0.30;;
28028;SDS011;15345;59.364;18.016;2023-04-01T12:30:15;0.60;;;0.30;;
28028;SDS011;15345;59.364;18.016;2023-04-01T12:33:24;0.93;;;0.20;;